TimeCDT,TemperatureF,Dew PointF,Humidity,Sea Level PressureIn,VisibilityMPH,Wind Direction,Wind SpeedMPH,Gust SpeedMPH,PrecipitationIn,Events,Conditions,WindDirDegrees,DateUTC
12:13 AM,24.8,14.0,64,30.13,10.0,NNW,17.3,29.9,N/A,,Clear,340,2013-04-01 05:13:00
12:33 AM,23.0,14.0,68,30.13,10.0,NNW,21.9,28.8,N/A,,Clear,340,2013-04-01 05:33:00
12:53 AM,23.0,12.2,63,30.14,10.0,NNW,20.7,25.3,N/A,,Clear,340,2013-04-01 05:53:00
1:13 AM,23.0,14.0,68,30.15,10.0,NNW,13.8,23.0,N/A,,Clear,340,2013-04-01 06:13:00
1:33 AM,23.0,14.0,68,30.15,10.0,NNW,15.0,19.6,N/A,,Clear,340,2013-04-01 06:33:00
1:53 AM,21.2,14.0,74,30.16,10.0,NNW,15.0,24.2,N/A,,Clear,330,2013-04-01 06:53:00
2:13 AM,21.2,12.2,68,30.16,10.0,NNW,16.1,-,N/A,,Clear,340,2013-04-01 07:13:00
2:33 AM,21.2,12.2,68,30.17,10.0,NNW,16.1,-,N/A,,Clear,340,2013-04-01 07:33:00
2:53 AM,21.2,12.2,68,30.17,10.0,NNW,17.3,24.2,N/A,,Clear,330,2013-04-01 07:53:00
3:13 AM,21.2,12.2,68,30.17,10.0,NNW,18.4,23.0,N/A,,Clear,330,2013-04-01 08:13:00
3:32 AM,21.2,12.2,68,30.17,10.0,NNW,17.3,-,N/A,,Clear,340,2013-04-01 08:32:00
3:53 AM,21.2,10.4,63,30.19,10.0,NNW,13.8,19.6,N/A,,Clear,330,2013-04-01 08:53:00
4:13 AM,21.2,12.2,68,30.19,10.0,NNW,12.7,-,N/A,,Clear,340,2013-04-01 09:13:00
4:32 AM,19.4,10.4,68,30.19,10.0,NNW,13.8,19.6,N/A,,Clear,330,2013-04-01 09:32:00
4:53 AM,19.4,12.2,74,30.20,10.0,NNW,13.8,18.4,N/A,,Clear,330,2013-04-01 09:53:00
5:13 AM,19.4,12.2,74,30.21,10.0,NW,13.8,18.4,N/A,,Clear,320,2013-04-01 10:13:00
5:32 AM,19.4,12.2,74,30.22,10.0,NNW,15.0,18.4,N/A,,Clear,330,2013-04-01 10:32:00
5:53 AM,19.4,12.2,74,30.22,10.0,NNW,13.8,18.4,N/A,,Clear,330,2013-04-01 10:53:00
6:13 AM,19.4,12.2,74,30.23,10.0,NW,11.5,-,N/A,,Clear,320,2013-04-01 11:13:00
6:32 AM,19.4,12.2,74,30.23,10.0,NNW,12.7,-,N/A,,Clear,330,2013-04-01 11:32:00
6:53 AM,19.4,12.2,74,30.24,10.0,NNW,12.7,-,N/A,,Clear,330,2013-04-01 11:53:00
7:13 AM,19.4,12.2,74,30.25,10.0,NW,13.8,-,N/A,,Clear,320,2013-04-01 12:13:00
7:32 AM,19.4,12.2,74,30.25,10.0,NW,11.5,-,N/A,,Clear,320,2013-04-01 12:32:00
7:53 AM,21.2,12.2,68,30.25,10.0,NNW,15.0,-,N/A,,Clear,330,2013-04-01 12:53:00
8:13 AM,21.2,12.2,68,30.26,10.0,NNW,15.0,-,N/A,,Clear,330,2013-04-01 13:13:00
8:32 AM,21.2,12.2,68,30.26,10.0,NNW,13.8,-,N/A,,Clear,330,2013-04-01 13:32:00
8:53 AM,23.0,12.2,63,30.27,10.0,NNW,15.0,-,N/A,,Clear,330,2013-04-01 13:53:00
9:13 AM,24.8,12.2,59,30.28,10.0,NW,15.0,-,N/A,,Clear,310,2013-04-01 14:13:00
9:32 AM,24.8,12.2,59,30.27,10.0,NW,13.8,19.6,N/A,,Clear,320,2013-04-01 14:32:00
9:53 AM,24.8,12.2,59,30.28,10.0,NNW,12.7,16.1,N/A,,Clear,330,2013-04-01 14:53:00
10:13 AM,24.8,12.2,59,30.28,10.0,NW,15.0,23.0,N/A,,Scattered Clouds,320,2013-04-01 15:13:00
10:33 AM,26.6,14.0,59,30.28,10.0,NNW,15.0,23.0,N/A,,Clear,330,2013-04-01 15:33:00
10:53 AM,26.6,12.2,55,30.28,10.0,NNW,17.3,21.9,N/A,,Clear,330,2013-04-01 15:53:00
11:13 AM,28.4,15.8,59,30.28,10.0,NNW,13.8,23.0,N/A,,Clear,340,2013-04-01 16:13:00
11:33 AM,28.4,15.8,59,30.28,10.0,NNW,20.7,25.3,N/A,,Clear,340,2013-04-01 16:33:00
11:53 AM,28.4,15.8,59,30.29,10.0,NW,17.3,25.3,N/A,,Clear,320,2013-04-01 16:53:00
12:12 PM,28.4,15.8,59,30.29,10.0,NNW,15.0,27.6,N/A,,Clear,330,2013-04-01 17:12:00
12:33 PM,28.4,15.8,59,30.28,10.0,NW,16.1,20.7,N/A,,Clear,320,2013-04-01 17:33:00
12:53 PM,30.2,15.8,55,30.28,10.0,NNW,15.0,21.9,N/A,,Clear,340,2013-04-01 17:53:00
1:12 PM,30.2,15.8,55,30.28,10.0,NNW,13.8,20.7,N/A,,Clear,340,2013-04-01 18:12:00
1:33 PM,30.2,17.6,60,30.28,10.0,NNW,17.3,23.0,N/A,,Clear,330,2013-04-01 18:33:00
1:53 PM,30.2,15.8,55,30.28,10.0,NNW,16.1,21.9,N/A,,Clear,330,2013-04-01 18:53:00
2:12 PM,32.0,17.6,55,30.28,10.0,NNW,12.7,20.7,N/A,,Clear,330,2013-04-01 19:12:00
2:33 PM,32.0,17.6,55,30.27,10.0,NNW,16.1,-,N/A,,Clear,340,2013-04-01 19:33:00
2:53 PM,33.8,17.6,52,30.28,10.0,NNW,10.4,21.9,N/A,,Clear,340,2013-04-01 19:53:00
3:12 PM,33.8,17.6,52,30.27,10.0,NNW,16.1,-,N/A,,Clear,340,2013-04-01 20:12:00
3:33 PM,33.8,19.4,56,30.27,10.0,NNW,15.0,21.9,N/A,,Clear,340,2013-04-01 20:33:00
3:53 PM,33.8,19.4,56,30.27,10.0,NNW,12.7,-,N/A,,Clear,340,2013-04-01 20:53:00
4:12 PM,33.8,19.4,56,30.27,10.0,NW,17.3,-,N/A,,Clear,320,2013-04-01 21:12:00
4:33 PM,33.8,17.6,52,30.27,10.0,NW,12.7,20.7,N/A,,Clear,320,2013-04-01 21:33:00
4:53 PM,33.8,17.6,52,30.26,10.0,NNW,15.0,18.4,N/A,,Clear,340,2013-04-01 21:53:00
5:12 PM,33.8,17.6,52,30.26,10.0,NNW,16.1,-,N/A,,Clear,340,2013-04-01 22:12:00
5:33 PM,33.8,19.4,56,30.26,10.0,NW,17.3,20.7,N/A,,Clear,320,2013-04-01 22:33:00
5:52 PM,33.8,17.6,52,30.26,10.0,NNW,13.8,-,N/A,,Clear,330,2013-04-01 22:52:00
6:13 PM,33.8,19.4,56,30.26,10.0,NW,11.5,-,N/A,,Clear,320,2013-04-01 23:13:00
6:33 PM,32.0,19.4,60,30.26,10.0,NNW,15.0,-,N/A,,Clear,340,2013-04-01 23:33:00
6:52 PM,30.2,19.4,64,30.26,10.0,NW,15.0,18.4,N/A,,Clear,310,2013-04-01 23:52:00
7:13 PM,30.2,19.4,64,30.26,10.0,NNW,11.5,-,N/A,,Clear,330,2013-04-02 00:13:00
7:32 PM,30.2,19.4,64,30.26,10.0,NNW,11.5,-,N/A,,Clear,330,2013-04-02 00:32:00
7:53 PM,28.4,19.4,69,30.25,10.0,NNW,12.7,-,N/A,,Clear,330,2013-04-02 00:53:00
8:13 PM,28.4,19.4,69,30.26,10.0,NNW,9.2,-,N/A,,Clear,330,2013-04-02 01:13:00
8:32 PM,28.4,19.4,69,30.26,10.0,NW,12.7,-,N/A,,Clear,320,2013-04-02 01:32:00
8:53 PM,28.4,19.4,69,30.26,10.0,NW,9.2,-,N/A,,Clear,320,2013-04-02 01:53:00
9:13 PM,28.4,21.2,74,30.27,10.0,NW,8.1,-,N/A,,Clear,310,2013-04-02 02:13:00
9:32 PM,28.4,19.4,69,30.27,10.0,NW,9.2,-,N/A,,Clear,310,2013-04-02 02:32:00
9:53 PM,28.4,19.4,69,30.28,10.0,WNW,8.1,-,N/A,,Clear,300,2013-04-02 02:53:00
10:13 PM,28.4,21.2,74,30.29,10.0,WNW,9.2,-,N/A,,Clear,300,2013-04-02 03:13:00
10:32 PM,26.6,21.2,80,30.29,10.0,NW,8.1,-,N/A,,Clear,310,2013-04-02 03:32:00
10:53 PM,26.6,21.2,80,30.28,10.0,WNW,6.9,-,N/A,,Clear,300,2013-04-02 03:53:00
11:13 PM,26.6,21.2,80,30.29,10.0,WNW,6.9,-,N/A,,Clear,300,2013-04-02 04:13:00
11:33 PM,26.6,21.2,80,30.29,10.0,WNW,8.1,-,N/A,,Clear,290,2013-04-02 04:33:00
11:53 PM,26.6,21.2,80,30.28,10.0,WNW,8.1,-,N/A,,Clear,290,2013-04-02 04:53:00